sensor_id;sensor_type;location;lat;lon;timestamp;temperature;humidity
13436;DHT22;6790;49.520;8.504;2022-08-04T00:01:21;21.60;96.10
13436;DHT22;6790;49.520;8.504;2022-08-04T00:03:57;21.60;96.20
13436;DHT22;6790;49.520;8.504;2022-08-04T00:09:42;21.60;96.50
13436;DHT22;6790;49.520;8.504;2022-08-04T00:12:11;21.60;96.90
13436;DHT22;6790;49.520;8.504;2022-08-04T00:14:45;21.50;97.10
13436;DHT22;6790;49.520;8.504;2022-08-04T00:17:13;21.40;97.10
13436;DHT22;6790;49.520;8.504;2022-08-04T00:19:43;21.40;97.20
13436;DHT22;6790;49.520;8.504;2022-08-04T00:22:12;21.40;97.30
13436;DHT22;6790;49.520;8.504;2022-08-04T00:24:40;21.40;97.20
13436;DHT22;6790;49.520;8.504;2022-08-04T00:27:07;21.40;97.30
13436;DHT22;6790;49.520;8.504;2022-08-04T00:29:34;21.40;97.90
13436;DHT22;6790;49.520;8.504;2022-08-04T00:32:01;21.30;98.40
13436;DHT22;6790;49.520;8.504;2022-08-04T00:34:30;21.40;98.50
13436;DHT22;6790;49.520;8.504;2022-08-04T00:36:57;21.40;98.30
13436;DHT22;6790;49.520;8.504;2022-08-04T00:39:24;21.40;98.70
13436;DHT22;6790;49.520;8.504;2022-08-04T00:45:16;21.30;98.40
13436;DHT22;6790;49.520;8.504;2022-08-04T00:51:24;21.20;98.60
13436;DHT22;6790;49.520;8.504;2022-08-04T00:54:26;21.10;99.50
13436;DHT22;6790;49.520;8.504;2022-08-04T00:57:29;21.10;99.30
13436;DHT22;6790;49.520;8.504;2022-08-04T01:00:21;21.00;99.90
13436;DHT22;6790;49.520;8.504;2022-08-04T01:02:54;20.90;99.90
13436;DHT22;6790;49.520;8.504;2022-08-04T01:11:47;20.70;99.90
13436;DHT22;6790;49.520;8.504;2022-08-04T01:15:29;20.70;99.90
13436;DHT22;6790;49.520;8.504;2022-08-04T01:17:32;20.70;99.90
13436;DHT22;6790;49.520;8.504;2022-08-04T01:20:09;20.70;99.90
13436;DHT22;6790;49.520;8.504;2022-08-04T01:31:21;20.70;99.80
13436;DHT22;6790;49.520;8.504;2022-08-04T01:33:53;20.80;99.90
13436;DHT22;6790;49.520;8.504;2022-08-04T01:36:23;20.80;99.90
13436;DHT22;6790;49.520;8.504;2022-08-04T01:38:52;20.80;99.90
13436;DHT22;6790;49.520;8.504;2022-08-04T01:41:19;20.70;99.90
13436;DHT22;6790;49.520;8.504;2022-08-04T01:43:45;20.70;99.90
13436;DHT22;6790;49.520;8.504;2022-08-04T01:46:16;20.70;99.90
13436;DHT22;6790;49.520;8.504;2022-08-04T01:48:44;20.70;99.90
13436;DHT22;6790;49.520;8.504;2022-08-04T01:51:12;20.60;99.90
13436;DHT22;6790;49.520;8.504;2022-08-04T01:53:40;20.50;99.90
13436;DHT22;6790;49.520;8.504;2022-08-04T01:56:09;20.50;99.90
13436;DHT22;6790;49.520;8.504;2022-08-04T01:58:37;20.40;99.90
13436;DHT22;6790;49.520;8.504;2022-08-04T02:01:06;20.30;99.90
13436;DHT22;6790;49.520;8.504;2022-08-04T02:03:39;20.30;99.90
13436;DHT22;6790;49.520;8.504;2022-08-04T02:06:34;20.30;99.90
13436;DHT22;6790;49.520;8.504;2022-08-04T02:12:08;20.20;99.90
13436;DHT22;6790;49.520;8.504;2022-08-04T02:18:04;20.20;99.90
13436;DHT22;6790;49.520;8.504;2022-08-04T02:20:37;20.10;99.90
13436;DHT22;6790;49.520;8.504;2022-08-04T02:23:06;20.10;99.90
13436;DHT22;6790;49.520;8.504;2022-08-04T02:25:39;20.10;99.90
13436;DHT22;6790;49.520;8.504;2022-08-04T02:28:11;20.10;99.90
13436;DHT22;6790;49.520;8.504;2022-08-04T02:30:48;20.00;99.90
13436;DHT22;6790;49.520;8.504;2022-08-04T02:33:25;20.00;99.90
13436;DHT22;6790;49.520;8.504;2022-08-04T02:36:00;20.00;99.90
13436;DHT22;6790;49.520;8.504;2022-08-04T02:41:16;19.90;99.90
13436;DHT22;6790;49.520;8.504;2022-08-04T02:43:47;19.90;99.90
13436;DHT22;6790;49.520;8.504;2022-08-04T02:46:17;19.90;99.90
13436;DHT22;6790;49.520;8.504;2022-08-04T02:48:46;19.90;99.90
13436;DHT22;6790;49.520;8.504;2022-08-04T02:51:15;19.90;99.90
13436;DHT22;6790;49.520;8.504;2022-08-04T02:53:43;19.80;99.90
13436;DHT22;6790;49.520;8.504;2022-08-04T02:56:10;19.90;99.90
13436;DHT22;6790;49.520;8.504;2022-08-04T02:58:41;20.00;99.90
13436;DHT22;6790;49.520;8.504;2022-08-04T03:01:11;19.90;99.90
13436;DHT22;6790;49.520;8.504;2022-08-04T03:03:40;19.90;99.90
13436;DHT22;6790;49.520;8.504;2022-08-04T03:06:27;19.90;99.90
13436;DHT22;6790;49.520;8.504;2022-08-04T03:34:13;19.90;99.90
13436;DHT22;6790;49.520;8.504;2022-08-04T03:37:14;19.90;99.90
13436;DHT22;6790;49.520;8.504;2022-08-04T03:48:59;19.80;99.90
13436;DHT22;6790;49.520;8.504;2022-08-04T03:56:00;19.90;99.90
13436;DHT22;6790;49.520;8.504;2022-08-04T04:02:07;19.90;99.90
13436;DHT22;6790;49.520;8.504;2022-08-04T04:07:55;19.70;99.90
13436;DHT22;6790;49.520;8.504;2022-08-04T04:10:33;19.70;99.90
13436;DHT22;6790;49.520;8.504;2022-08-04T04:22:36;19.90;99.90
13436;DHT22;6790;49.520;8.504;2022-08-04T04:25:29;19.90;99.90
13436;DHT22;6790;49.520;8.504;2022-08-04T04:28:12;20.00;99.90
13436;DHT22;6790;49.520;8.504;2022-08-04T04:34:08;20.00;99.90
13436;DHT22;6790;49.520;8.504;2022-08-04T04:42:42;20.00;99.90
13436;DHT22;6790;49.520;8.504;2022-08-04T04:45:37;20.00;99.90
13436;DHT22;6790;49.520;8.504;2022-08-04T04:48:14;20.10;99.90
13436;DHT22;6790;49.520;8.504;2022-08-04T04:51:09;20.10;99.90
13436;DHT22;6790;49.520;8.504;2022-08-04T04:57:06;20.20;99.90
13436;DHT22;6790;49.520;8.504;2022-08-04T04:59:38;20.20;99.90
13436;DHT22;6790;49.520;8.504;2022-08-04T05:05:38;20.30;99.90
13436;DHT22;6790;49.520;8.504;2022-08-04T05:14:20;20.40;99.90
13436;DHT22;6790;49.520;8.504;2022-08-04T05:17:05;20.50;99.90
13436;DHT22;6790;49.520;8.504;2022-08-04T05:25:32;20.70;99.90
13436;DHT22;6790;49.520;8.504;2022-08-04T05:28:08;20.80;99.90
13436;DHT22;6790;49.520;8.504;2022-08-04T05:30:40;20.80;99.90
13436;DHT22;6790;49.520;8.504;2022-08-04T05:33:15;20.90;99.90
13436;DHT22;6790;49.520;8.504;2022-08-04T05:35:49;20.90;99.90
13436;DHT22;6790;49.520;8.504;2022-08-04T05:38:22;21.00;99.90
13436;DHT22;6790;49.520;8.504;2022-08-04T05:40:51;21.10;99.90
13436;DHT22;6790;49.520;8.504;2022-08-04T05:43:19;21.20;99.90
13436;DHT22;6790;49.520;8.504;2022-08-04T05:45:48;21.30;99.90
13436;DHT22;6790;49.520;8.504;2022-08-04T05:48:16;21.40;99.90
13436;DHT22;6790;49.520;8.504;2022-08-04T05:50:42;21.50;99.90
13436;DHT22;6790;49.520;8.504;2022-08-04T05:53:10;21.50;99.90
13436;DHT22;6790;49.520;8.504;2022-08-04T05:55:37;21.60;99.90
13436;DHT22;6790;49.520;8.504;2022-08-04T05:58:03;21.80;99.50
13436;DHT22;6790;49.520;8.504;2022-08-04T06:00:30;22.00;98.20
13436;DHT22;6790;49.520;8.504;2022-08-04T06:02:58;22.30;97.10
13436;DHT22;6790;49.520;8.504;2022-08-04T06:05:25;22.40;97.10
13436;DHT22;6790;49.520;8.504;2022-08-04T06:07:51;22.50;96.80
13436;DHT22;6790;49.520;8.504;2022-08-04T06:10:17;22.60;98.80
13436;DHT22;6790;49.520;8.504;2022-08-04T06:12:46;22.60;96.30
13436;DHT22;6790;49.520;8.504;2022-08-04T06:15:18;22.80;95.70
13436;DHT22;6790;49.520;8.504;2022-08-04T06:17:49;23.00;95.40
13436;DHT22;6790;49.520;8.504;2022-08-04T06:20:22;23.10;94.30
13436;DHT22;6790;49.520;8.504;2022-08-04T06:22:54;23.20;94.70
13436;DHT22;6790;49.520;8.504;2022-08-04T06:25:25;23.30;94.70
13436;DHT22;6790;49.520;8.504;2022-08-04T06:27:54;23.30;95.50
13436;DHT22;6790;49.520;8.504;2022-08-04T06:30:21;23.40;94.60
13436;DHT22;6790;49.520;8.504;2022-08-04T06:32:50;23.50;94.10
13436;DHT22;6790;49.520;8.504;2022-08-04T06:35:22;23.70;92.40
13436;DHT22;6790;49.520;8.504;2022-08-04T06:37:50;23.80;91.80
13436;DHT22;6790;49.520;8.504;2022-08-04T06:40:18;23.90;91.70
13436;DHT22;6790;49.520;8.504;2022-08-04T06:42:47;24.10;91.50
13436;DHT22;6790;49.520;8.504;2022-08-04T06:45:14;24.30;90.50
13436;DHT22;6790;49.520;8.504;2022-08-04T06:47:41;24.50;90.40
13436;DHT22;6790;49.520;8.504;2022-08-04T06:50:09;24.60;87.50
13436;DHT22;6790;49.520;8.504;2022-08-04T06:52:36;24.80;88.30
13436;DHT22;6790;49.520;8.504;2022-08-04T06:55:04;24.90;88.00
13436;DHT22;6790;49.520;8.504;2022-08-04T06:57:34;25.10;88.60
13436;DHT22;6790;49.520;8.504;2022-08-04T07:00:05;25.20;86.40
13436;DHT22;6790;49.520;8.504;2022-08-04T07:02:46;25.50;80.00
13436;DHT22;6790;49.520;8.504;2022-08-04T07:05:13;25.60;80.40
13436;DHT22;6790;49.520;8.504;2022-08-04T07:07:41;25.80;78.10
13436;DHT22;6790;49.520;8.504;2022-08-04T07:10:08;26.00;79.80
13436;DHT22;6790;49.520;8.504;2022-08-04T07:12:34;26.20;73.70
13436;DHT22;6790;49.520;8.504;2022-08-04T07:15:00;26.30;76.80
13436;DHT22;6790;49.520;8.504;2022-08-04T07:17:28;26.40;74.40
13436;DHT22;6790;49.520;8.504;2022-08-04T07:19:55;26.60;71.40
13436;DHT22;6790;49.520;8.504;2022-08-04T07:22:21;26.80;71.00
13436;DHT22;6790;49.520;8.504;2022-08-04T07:24:54;27.00;72.00
13436;DHT22;6790;49.520;8.504;2022-08-04T07:27:21;27.10;70.20
13436;DHT22;6790;49.520;8.504;2022-08-04T07:29:47;27.30;70.80
13436;DHT22;6790;49.520;8.504;2022-08-04T07:32:16;27.40;67.00
13436;DHT22;6790;49.520;8.504;2022-08-04T07:34:46;27.60;69.00
13436;DHT22;6790;49.520;8.504;2022-08-04T07:37:14;27.80;66.10
13436;DHT22;6790;49.520;8.504;2022-08-04T07:39:40;27.80;66.90
13436;DHT22;6790;49.520;8.504;2022-08-04T07:42:06;28.00;64.30
13436;DHT22;6790;49.520;8.504;2022-08-04T07:44:34;28.10;66.40
13436;DHT22;6790;49.520;8.504;2022-08-04T07:47:01;28.20;61.20
13436;DHT22;6790;49.520;8.504;2022-08-04T07:49:29;28.20;63.30
13436;DHT22;6790;49.520;8.504;2022-08-04T07:51:54;28.50;63.30
13436;DHT22;6790;49.520;8.504;2022-08-04T07:54:21;28.60;68.20
13436;DHT22;6790;49.520;8.504;2022-08-04T07:56:47;28.70;61.00
13436;DHT22;6790;49.520;8.504;2022-08-04T07:59:17;28.70;63.70
13436;DHT22;6790;49.520;8.504;2022-08-04T08:01:43;29.00;57.90
13436;DHT22;6790;49.520;8.504;2022-08-04T08:04:14;29.20;58.90
13436;DHT22;6790;49.520;8.504;2022-08-04T08:06:43;29.20;55.70
13436;DHT22;6790;49.520;8.504;2022-08-04T08:09:15;29.40;54.70
13436;DHT22;6790;49.520;8.504;2022-08-04T08:11:56;29.40;53.80
13436;DHT22;6790;49.520;8.504;2022-08-04T08:14:22;29.70;56.00
13436;DHT22;6790;49.520;8.504;2022-08-04T08:16:49;29.80;52.80
13436;DHT22;6790;49.520;8.504;2022-08-04T08:19:14;29.90;50.80
13436;DHT22;6790;49.520;8.504;2022-08-04T08:21:45;29.90;50.80
13436;DHT22;6790;49.520;8.504;2022-08-04T08:24:13;30.00;50.10
13436;DHT22;6790;49.520;8.504;2022-08-04T08:26:40;30.30;54.60
13436;DHT22;6790;49.520;8.504;2022-08-04T08:29:06;30.40;51.30
13436;DHT22;6790;49.520;8.504;2022-08-04T08:31:33;30.50;49.60
13436;DHT22;6790;49.520;8.504;2022-08-04T08:33:59;30.70;49.20
13436;DHT22;6790;49.520;8.504;2022-08-04T08:36:38;30.90;47.50
13436;DHT22;6790;49.520;8.504;2022-08-04T08:57:19;31.50;47.00
13436;DHT22;6790;49.520;8.504;2022-08-04T09:00:05;31.50;46.50
13436;DHT22;6790;49.520;8.504;2022-08-04T09:03:14;31.80;43.40
13436;DHT22;6790;49.520;8.504;2022-08-04T09:06:21;31.90;43.10
13436;DHT22;6790;49.520;8.504;2022-08-04T09:11:40;31.70;44.70
13436;DHT22;6790;49.520;8.504;2022-08-04T09:14:23;32.00;44.40
13436;DHT22;6790;49.520;8.504;2022-08-04T09:16:59;32.20;43.40
13436;DHT22;6790;49.520;8.504;2022-08-04T09:19:44;32.30;43.10
13436;DHT22;6790;49.520;8.504;2022-08-04T09:22:49;32.40;42.90
13436;DHT22;6790;49.520;8.504;2022-08-04T09:25:23;32.60;41.00
13436;DHT22;6790;49.520;8.504;2022-08-04T09:28:10;32.70;39.90
13436;DHT22;6790;49.520;8.504;2022-08-04T09:31:03;32.30;39.80
13436;DHT22;6790;49.520;8.504;2022-08-04T09:39:23;32.60;39.60
13436;DHT22;6790;49.520;8.504;2022-08-04T09:42:34;32.80;39.60
13436;DHT22;6790;49.520;8.504;2022-08-04T09:48:33;32.80;39.10
13436;DHT22;6790;49.520;8.504;2022-08-04T09:51:01;32.90;40.50
13436;DHT22;6790;49.520;8.504;2022-08-04T09:54:05;33.00;35.60
13436;DHT22;6790;49.520;8.504;2022-08-04T09:56:59;33.10;37.70
13436;DHT22;6790;49.520;8.504;2022-08-04T09:59:36;33.50;38.50
13436;DHT22;6790;49.520;8.504;2022-08-04T10:02:06;33.60;35.90
13436;DHT22;6790;49.520;8.504;2022-08-04T10:04:35;33.80;34.70
13436;DHT22;6790;49.520;8.504;2022-08-04T10:16:09;34.10;32.00
13436;DHT22;6790;49.520;8.504;2022-08-04T10:22:14;34.10;33.40
13436;DHT22;6790;49.520;8.504;2022-08-04T10:27:51;34.10;34.10
13436;DHT22;6790;49.520;8.504;2022-08-04T10:30:20;34.20;31.90
13436;DHT22;6790;49.520;8.504;2022-08-04T10:33:10;34.20;32.50
13436;DHT22;6790;49.520;8.504;2022-08-04T10:35:47;34.00;32.80
13436;DHT22;6790;49.520;8.504;2022-08-04T10:41:08;34.20;33.40
13436;DHT22;6790;49.520;8.504;2022-08-04T10:46:38;34.50;34.80
13436;DHT22;6790;49.520;8.504;2022-08-04T10:49:15;34.50;31.20
13436;DHT22;6790;49.520;8.504;2022-08-04T10:57:39;34.60;32.70
13436;DHT22;6790;49.520;8.504;2022-08-04T11:00:14;34.50;33.10
13436;DHT22;6790;49.520;8.504;2022-08-04T11:02:58;34.80;33.70
13436;DHT22;6790;49.520;8.504;2022-08-04T11:05:55;35.20;31.50
13436;DHT22;6790;49.520;8.504;2022-08-04T11:08:34;35.20;32.10
13436;DHT22;6790;49.520;8.504;2022-08-04T11:11:21;35.30;29.10
13436;DHT22;6790;49.520;8.504;2022-08-04T11:14:11;35.10;34.90
13436;DHT22;6790;49.520;8.504;2022-08-04T11:16:48;35.10;28.40
13436;DHT22;6790;49.520;8.504;2022-08-04T11:22:46;35.50;35.80
13436;DHT22;6790;49.520;8.504;2022-08-04T11:25:21;35.60;28.90
13436;DHT22;6790;49.520;8.504;2022-08-04T11:30:58;35.80;26.40
13436;DHT22;6790;49.520;8.504;2022-08-04T11:36:40;35.80;29.40
13436;DHT22;6790;49.520;8.504;2022-08-04T11:40:19;35.50;28.40
13436;DHT22;6790;49.520;8.504;2022-08-04T11:42:29;35.40;27.80
13436;DHT22;6790;49.520;8.504;2022-08-04T11:47:40;36.00;24.70
13436;DHT22;6790;49.520;8.504;2022-08-04T11:51:05;36.10;24.70
13436;DHT22;6790;49.520;8.504;2022-08-04T11:53:15;36.40;24.70
13436;DHT22;6790;49.520;8.504;2022-08-04T11:55:45;36.30;26.20
13436;DHT22;6790;49.520;8.504;2022-08-04T11:58:15;36.30;23.70
13436;DHT22;6790;49.520;8.504;2022-08-04T12:06:08;36.00;24.20
13436;DHT22;6790;49.520;8.504;2022-08-04T12:08:59;36.30;23.70
13436;DHT22;6790;49.520;8.504;2022-08-04T12:11:54;36.50;24.10
13436;DHT22;6790;49.520;8.504;2022-08-04T12:17:16;36.50;22.60
13436;DHT22;6790;49.520;8.504;2022-08-04T12:19:52;36.60;23.70
13436;DHT22;6790;49.520;8.504;2022-08-04T12:22:24;36.70;20.80
13436;DHT22;6790;49.520;8.504;2022-08-04T12:25:04;36.80;23.10
13436;DHT22;6790;49.520;8.504;2022-08-04T12:27:36;37.00;24.00
13436;DHT22;6790;49.520;8.504;2022-08-04T12:30:05;36.90;21.90
13436;DHT22;6790;49.520;8.504;2022-08-04T12:32:38;37.20;21.90
13436;DHT22;6790;49.520;8.504;2022-08-04T12:38:05;36.80;21.60
13436;DHT22;6790;49.520;8.504;2022-08-04T12:40:46;37.00;22.50
13436;DHT22;6790;49.520;8.504;2022-08-04T12:46:08;37.50;21.20
13436;DHT22;6790;49.520;8.504;2022-08-04T12:48:37;37.50;22.00
13436;DHT22;6790;49.520;8.504;2022-08-04T12:51:06;37.70;22.60
13436;DHT22;6790;49.520;8.504;2022-08-04T12:53:39;37.70;24.80
13436;DHT22;6790;49.520;8.504;2022-08-04T12:56:09;37.70;21.70
13436;DHT22;6790;49.520;8.504;2022-08-04T12:58:44;37.60;20.90
13436;DHT22;6790;49.520;8.504;2022-08-04T13:01:19;37.60;22.00
13436;DHT22;6790;49.520;8.504;2022-08-04T13:03:51;37.50;25.00
13436;DHT22;6790;49.520;8.504;2022-08-04T13:06:27;37.20;22.30
13436;DHT22;6790;49.520;8.504;2022-08-04T13:09:02;37.00;23.40
13436;DHT22;6790;49.520;8.504;2022-08-04T13:11:38;37.00;21.70
13436;DHT22;6790;49.520;8.504;2022-08-04T13:14:05;37.00;20.20
13436;DHT22;6790;49.520;8.504;2022-08-04T13:16:32;37.10;22.00
13436;DHT22;6790;49.520;8.504;2022-08-04T13:18:59;37.10;21.30
13436;DHT22;6790;49.520;8.504;2022-08-04T13:21:28;37.30;21.30
13436;DHT22;6790;49.520;8.504;2022-08-04T13:23:57;37.60;23.30
13436;DHT22;6790;49.520;8.504;2022-08-04T13:26:27;37.80;24.40
13436;DHT22;6790;49.520;8.504;2022-08-04T13:28:54;38.10;22.10
13436;DHT22;6790;49.520;8.504;2022-08-04T13:31:27;38.40;19.50
13436;DHT22;6790;49.520;8.504;2022-08-04T13:34:01;38.70;21.20
13436;DHT22;6790;49.520;8.504;2022-08-04T13:36:30;39.00;21.10
13436;DHT22;6790;49.520;8.504;2022-08-04T13:39:01;39.00;20.20
13436;DHT22;6790;49.520;8.504;2022-08-04T13:41:37;38.50;20.40
13436;DHT22;6790;49.520;8.504;2022-08-04T13:44:05;37.60;20.10
13436;DHT22;6790;49.520;8.504;2022-08-04T13:47:00;37.20;21.60
13436;DHT22;6790;49.520;8.504;2022-08-04T13:49:29;37.70;20.00
13436;DHT22;6790;49.520;8.504;2022-08-04T13:52:00;38.00;23.00
13436;DHT22;6790;49.520;8.504;2022-08-04T13:54:36;37.80;20.80
13436;DHT22;6790;49.520;8.504;2022-08-04T13:57:08;37.50;23.50
13436;DHT22;6790;49.520;8.504;2022-08-04T13:59:47;37.60;23.40
13436;DHT22;6790;49.520;8.504;2022-08-04T14:02:38;37.60;21.20
13436;DHT22;6790;49.520;8.504;2022-08-04T14:05:18;37.50;21.40
13436;DHT22;6790;49.520;8.504;2022-08-04T14:07:59;37.70;21.40
13436;DHT22;6790;49.520;8.504;2022-08-04T14:10:29;37.90;24.10
13436;DHT22;6790;49.520;8.504;2022-08-04T14:12:55;38.00;24.50
13436;DHT22;6790;49.520;8.504;2022-08-04T14:15:40;37.80;21.80
13436;DHT22;6790;49.520;8.504;2022-08-04T14:18:23;38.00;20.40
13436;DHT22;6790;49.520;8.504;2022-08-04T14:24:10;37.60;20.80
13436;DHT22;6790;49.520;8.504;2022-08-04T14:26:33;37.30;21.80
13436;DHT22;6790;49.520;8.504;2022-08-04T14:29:14;37.00;23.30
13436;DHT22;6790;49.520;8.504;2022-08-04T14:31:41;37.00;23.70
13436;DHT22;6790;49.520;8.504;2022-08-04T14:34:07;37.20;22.60
13436;DHT22;6790;49.520;8.504;2022-08-04T14:36:52;37.10;21.20
13436;DHT22;6790;49.520;8.504;2022-08-04T14:39:45;36.90;21.30
13436;DHT22;6790;49.520;8.504;2022-08-04T14:42:12;36.80;22.50
13436;DHT22;6790;49.520;8.504;2022-08-04T14:44:56;36.80;23.10
13436;DHT22;6790;49.520;8.504;2022-08-04T14:47:52;37.00;24.00
13436;DHT22;6790;49.520;8.504;2022-08-04T14:50:18;36.80;21.90
13436;DHT22;6790;49.520;8.504;2022-08-04T14:52:44;36.70;26.40
13436;DHT22;6790;49.520;8.504;2022-08-04T14:55:21;36.40;23.60
13436;DHT22;6790;49.520;8.504;2022-08-04T14:57:49;36.60;21.70
13436;DHT22;6790;49.520;8.504;2022-08-04T15:00:31;36.70;20.90
13436;DHT22;6790;49.520;8.504;2022-08-04T15:03:07;36.80;24.40
13436;DHT22;6790;49.520;8.504;2022-08-04T15:05:38;36.50;22.10
13436;DHT22;6790;49.520;8.504;2022-08-04T15:08:05;36.50;21.70
13436;DHT22;6790;49.520;8.504;2022-08-04T15:10:32;36.40;22.60
13436;DHT22;6790;49.520;8.504;2022-08-04T15:12:58;36.10;21.70
13436;DHT22;6790;49.520;8.504;2022-08-04T15:15:24;35.80;33.70
13436;DHT22;6790;49.520;8.504;2022-08-04T15:17:53;35.80;22.40
13436;DHT22;6790;49.520;8.504;2022-08-04T15:20:19;36.00;21.90
13436;DHT22;6790;49.520;8.504;2022-08-04T15:22:46;36.00;22.30
13436;DHT22;6790;49.520;8.504;2022-08-04T15:25:12;36.10;22.90
13436;DHT22;6790;49.520;8.504;2022-08-04T15:27:39;35.90;28.80
13436;DHT22;6790;49.520;8.504;2022-08-04T15:30:13;35.90;22.80
13436;DHT22;6790;49.520;8.504;2022-08-04T15:32:54;35.90;26.90
13436;DHT22;6790;49.520;8.504;2022-08-04T15:35:26;36.00;28.00
13436;DHT22;6790;49.520;8.504;2022-08-04T15:38:08;35.60;25.50
13436;DHT22;6790;49.520;8.504;2022-08-04T15:40:46;35.60;21.50
13436;DHT22;6790;49.520;8.504;2022-08-04T15:46:09;35.60;23.60
13436;DHT22;6790;49.520;8.504;2022-08-04T15:48:36;35.70;21.30
13436;DHT22;6790;49.520;8.504;2022-08-04T15:51:10;35.70;22.80
13436;DHT22;6790;49.520;8.504;2022-08-04T15:58:51;35.60;22.40
13436;DHT22;6790;49.520;8.504;2022-08-04T16:01:19;35.50;23.20
13436;DHT22;6790;49.520;8.504;2022-08-04T16:03:50;35.40;24.00
13436;DHT22;6790;49.520;8.504;2022-08-04T16:16:32;34.80;29.80
13436;DHT22;6790;49.520;8.504;2022-08-04T16:19:48;34.60;29.10
13436;DHT22;6790;49.520;8.504;2022-08-04T16:22:39;34.70;27.60
13436;DHT22;6790;49.520;8.504;2022-08-04T16:25:07;34.40;26.10
13436;DHT22;6790;49.520;8.504;2022-08-04T16:27:40;34.30;38.10
13436;DHT22;6790;49.520;8.504;2022-08-04T16:30:12;33.80;43.00
13436;DHT22;6790;49.520;8.504;2022-08-04T16:32:45;33.40;47.70
13436;DHT22;6790;49.520;8.504;2022-08-04T16:35:25;33.40;33.90
13436;DHT22;6790;49.520;8.504;2022-08-04T16:38:09;33.40;31.10
13436;DHT22;6790;49.520;8.504;2022-08-04T16:40:37;34.00;28.30
13436;DHT22;6790;49.520;8.504;2022-08-04T16:43:17;34.40;33.60
13436;DHT22;6790;49.520;8.504;2022-08-04T16:48:29;33.40;31.70
13436;DHT22;6790;49.520;8.504;2022-08-04T16:51:08;33.10;42.40
13436;DHT22;6790;49.520;8.504;2022-08-04T16:53:42;32.00;52.20
13436;DHT22;6790;49.520;8.504;2022-08-04T16:56:10;31.00;55.70
13436;DHT22;6790;49.520;8.504;2022-08-04T16:58:38;30.70;61.70
13436;DHT22;6790;49.520;8.504;2022-08-04T17:01:09;30.20;68.00
13436;DHT22;6790;49.520;8.504;2022-08-04T17:03:38;30.30;68.40
13436;DHT22;6790;49.520;8.504;2022-08-04T17:06:11;29.60;76.70
13436;DHT22;6790;49.520;8.504;2022-08-04T17:08:44;31.00;44.20
13436;DHT22;6790;49.520;8.504;2022-08-04T17:11:13;31.50;37.80
13436;DHT22;6790;49.520;8.504;2022-08-04T17:13:45;31.10;51.20
13436;DHT22;6790;49.520;8.504;2022-08-04T17:16:14;30.90;40.50
13436;DHT22;6790;49.520;8.504;2022-08-04T17:18:46;31.60;43.30
13436;DHT22;6790;49.520;8.504;2022-08-04T17:21:22;30.80;66.30
13436;DHT22;6790;49.520;8.504;2022-08-04T17:23:54;29.60;73.20
13436;DHT22;6790;49.520;8.504;2022-08-04T17:26:25;30.00;62.90
13436;DHT22;6790;49.520;8.504;2022-08-04T17:28:56;29.70;69.70
13436;DHT22;6790;49.520;8.504;2022-08-04T17:31:26;29.40;66.50
13436;DHT22;6790;49.520;8.504;2022-08-04T17:33:55;29.70;65.10
13436;DHT22;6790;49.520;8.504;2022-08-04T17:36:25;29.40;65.30
13436;DHT22;6790;49.520;8.504;2022-08-04T17:38:57;29.50;77.90
13436;DHT22;6790;49.520;8.504;2022-08-04T17:41:26;29.40;71.60
13436;DHT22;6790;49.520;8.504;2022-08-04T17:44:00;29.70;67.90
13436;DHT22;6790;49.520;8.504;2022-08-04T17:46:37;29.70;68.20
13436;DHT22;6790;49.520;8.504;2022-08-04T17:49:09;29.50;64.50
13436;DHT22;6790;49.520;8.504;2022-08-04T17:51:43;30.10;50.30
13436;DHT22;6790;49.520;8.504;2022-08-04T17:54:17;30.30;49.30
13436;DHT22;6790;49.520;8.504;2022-08-04T17:56:49;30.10;58.60
13436;DHT22;6790;49.520;8.504;2022-08-04T17:59:19;30.00;59.10
13436;DHT22;6790;49.520;8.504;2022-08-04T18:04:28;29.90;59.50
13436;DHT22;6790;49.520;8.504;2022-08-04T18:07:03;29.80;68.40
13436;DHT22;6790;49.520;8.504;2022-08-04T18:09:37;29.90;63.50
13436;DHT22;6790;49.520;8.504;2022-08-04T18:14:42;29.90;57.90
13436;DHT22;6790;49.520;8.504;2022-08-04T18:17:35;29.80;58.60
13436;DHT22;6790;49.520;8.504;2022-08-04T18:20:06;29.90;59.00
13436;DHT22;6790;49.520;8.504;2022-08-04T18:22:34;29.70;58.90
13436;DHT22;6790;49.520;8.504;2022-08-04T18:25:01;29.70;57.70
13436;DHT22;6790;49.520;8.504;2022-08-04T18:27:30;29.70;57.30
13436;DHT22;6790;49.520;8.504;2022-08-04T18:29:57;29.60;57.60
13436;DHT22;6790;49.520;8.504;2022-08-04T18:32:23;29.50;52.00
13436;DHT22;6790;49.520;8.504;2022-08-04T18:34:51;29.50;55.70
13436;DHT22;6790;49.520;8.504;2022-08-04T18:37:18;29.40;58.90
13436;DHT22;6790;49.520;8.504;2022-08-04T18:39:44;29.40;58.30
13436;DHT22;6790;49.520;8.504;2022-08-04T18:42:11;29.20;58.60
13436;DHT22;6790;49.520;8.504;2022-08-04T18:44:37;29.10;57.40
13436;DHT22;6790;49.520;8.504;2022-08-04T18:47:03;29.10;57.90
13436;DHT22;6790;49.520;8.504;2022-08-04T18:49:30;29.00;57.40
13436;DHT22;6790;49.520;8.504;2022-08-04T18:51:56;29.00;57.30
13436;DHT22;6790;49.520;8.504;2022-08-04T18:54:22;28.90;59.60
13436;DHT22;6790;49.520;8.504;2022-08-04T18:56:52;28.80;56.30
13436;DHT22;6790;49.520;8.504;2022-08-04T18:59:18;28.80;60.00
13436;DHT22;6790;49.520;8.504;2022-08-04T19:01:45;28.70;57.90
13436;DHT22;6790;49.520;8.504;2022-08-04T19:04:11;28.70;58.60
13436;DHT22;6790;49.520;8.504;2022-08-04T19:06:37;28.70;60.20
13436;DHT22;6790;49.520;8.504;2022-08-04T19:09:04;28.70;56.20
13436;DHT22;6790;49.520;8.504;2022-08-04T19:11:31;28.70;56.30
13436;DHT22;6790;49.520;8.504;2022-08-04T19:14:00;28.70;57.60
13436;DHT22;6790;49.520;8.504;2022-08-04T19:16:27;28.70;59.50
13436;DHT22;6790;49.520;8.504;2022-08-04T19:18:54;28.60;58.00
13436;DHT22;6790;49.520;8.504;2022-08-04T19:21:20;28.50;57.90
13436;DHT22;6790;49.520;8.504;2022-08-04T19:23:46;28.40;59.50
13436;DHT22;6790;49.520;8.504;2022-08-04T19:26:12;28.40;59.60
13436;DHT22;6790;49.520;8.504;2022-08-04T19:28:37;28.40;57.90
13436;DHT22;6790;49.520;8.504;2022-08-04T19:31:05;28.40;60.40
13436;DHT22;6790;49.520;8.504;2022-08-04T19:33:32;28.40;58.20
13436;DHT22;6790;49.520;8.504;2022-08-04T19:35:58;28.40;54.30
13436;DHT22;6790;49.520;8.504;2022-08-04T19:38:24;28.40;55.40
13436;DHT22;6790;49.520;8.504;2022-08-04T19:40:50;28.60;55.50
13436;DHT22;6790;49.520;8.504;2022-08-04T19:43:15;28.40;58.90
13436;DHT22;6790;49.520;8.504;2022-08-04T19:45:41;28.50;59.70
13436;DHT22;6790;49.520;8.504;2022-08-04T19:48:07;28.60;51.50
13436;DHT22;6790;49.520;8.504;2022-08-04T19:50:34;28.90;50.10
13436;DHT22;6790;49.520;8.504;2022-08-04T19:52:59;29.00;52.90
13436;DHT22;6790;49.520;8.504;2022-08-04T19:55:25;29.00;51.00
13436;DHT22;6790;49.520;8.504;2022-08-04T19:57:52;28.80;50.80
13436;DHT22;6790;49.520;8.504;2022-08-04T20:00:19;28.90;49.40
13436;DHT22;6790;49.520;8.504;2022-08-04T20:02:45;28.80;53.50
13436;DHT22;6790;49.520;8.504;2022-08-04T20:05:12;28.70;56.10
13436;DHT22;6790;49.520;8.504;2022-08-04T20:07:38;28.70;57.40
13436;DHT22;6790;49.520;8.504;2022-08-04T20:10:06;28.50;52.80
13436;DHT22;6790;49.520;8.504;2022-08-04T20:12:33;28.40;53.00